createdAt,value
2022-09-01T00:00:33.547Z,70.30
2022-09-01T00:03:38.316Z,70.51
2022-09-01T00:06:40.282Z,70.46
2022-09-01T00:09:41.881Z,70.17
2022-09-01T00:12:44.850Z,70.15
2022-09-01T00:15:46.510Z,69.96
2022-09-01T00:18:51.874Z,69.83
2022-09-01T00:21:53.446Z,69.97
2022-09-01T00:24:56.060Z,70.06
2022-09-01T00:27:59.730Z,70.20
2022-09-01T00:31:02.382Z,70.49
2022-09-01T00:34:04.632Z,70.38
2022-09-01T00:37:06.347Z,70.24
2022-09-01T00:40:11.087Z,70.15
2022-09-01T00:43:20.550Z,70.18
2022-09-01T00:46:29.441Z,69.88
2022-09-01T00:49:37.599Z,70.11
2022-09-01T00:52:44.643Z,70.13
2022-09-01T00:55:46.229Z,70.00
2022-09-01T00:58:48.361Z,69.94
2022-09-01T01:01:50.323Z,70.08
2022-09-01T01:04:55.395Z,69.96
2022-09-01T01:07:57.063Z,70.20
2022-09-01T01:11:04.134Z,70.08
2022-09-01T01:14:11.524Z,69.91
2022-09-01T01:17:13.109Z,69.69
2022-09-01T01:20:37.443Z,69.65
2022-09-01T01:23:57.194Z,69.59
2022-09-01T01:26:59.539Z,69.37
2022-09-01T01:30:07.286Z,69.44
2022-09-01T01:33:11.599Z,69.56
2022-09-01T01:36:15.976Z,69.76
2022-09-01T01:39:22.073Z,69.63
2022-09-01T01:42:24.532Z,69.69
2022-09-01T01:45:27.058Z,69.45
2022-09-01T01:48:33.870Z,69.67
2022-09-01T01:51:36.410Z,69.78
2022-09-01T01:54:38.334Z,69.64
2022-09-01T01:57:41.135Z,69.51
2022-09-01T02:00:43.953Z,69.57
2022-09-01T02:03:45.615Z,69.49
2022-09-01T02:06:49.271Z,69.47
2022-09-01T02:09:51.675Z,69.42
2022-09-01T02:12:53.358Z,69.48
2022-09-01T02:15:57.572Z,69.54
2022-09-01T02:19:01.234Z,69.46
2022-09-01T02:22:02.995Z,69.57
2022-09-01T02:25:05.762Z,69.57
2022-09-01T02:28:09.516Z,69.72
2022-09-01T02:31:12.125Z,69.67
2022-09-01T02:34:14.304Z,69.86
2022-09-01T02:37:16.090Z,70.02
2022-09-01T02:40:17.881Z,69.85
2022-09-01T02:43:20.571Z,69.92
2022-09-01T02:46:22.891Z,69.84
2022-09-01T02:49:28.038Z,69.78
2022-09-01T02:52:34.903Z,69.67
2022-09-01T02:55:39.079Z,69.70
2022-09-01T02:58:46.233Z,69.81
2022-09-01T03:01:53.255Z,69.88
2022-09-01T03:04:55.297Z,69.87
2022-09-01T03:08:00.667Z,69.89
2022-09-01T03:11:02.376Z,69.85
2022-09-01T03:14:06.993Z,69.83
2022-09-01T03:17:08.595Z,69.83
2022-09-01T03:20:10.564Z,69.83
2022-09-01T03:23:19.491Z,69.87
2022-09-01T03:26:23.169Z,69.94
2022-09-01T03:29:24.888Z,69.95
2022-09-01T03:32:26.478Z,69.97
2022-09-01T03:35:31.262Z,69.97
2022-09-01T03:38:33.630Z,70.04
2022-09-01T03:41:37.418Z,69.99
2022-09-01T03:44:40.403Z,70.12
2022-09-01T03:47:42.810Z,70.09
2022-09-01T03:50:45.681Z,70.13
2022-09-01T03:53:48.382Z,70.10
2022-09-01T03:56:50.201Z,70.18
2022-09-01T03:59:53.607Z,70.15
2022-09-01T04:02:58.770Z,70.18
2022-09-01T04:06:01.795Z,70.14
2022-09-01T04:09:03.707Z,70.15
2022-09-01T04:12:08.369Z,70.17
2022-09-01T04:15:13.921Z,70.40
2022-09-01T04:18:20.860Z,70.31
2022-09-01T04:21:23.627Z,70.35
2022-09-01T04:24:30.399Z,70.25
2022-09-01T04:27:33.215Z,70.28
2022-09-01T04:30:36.206Z,70.36
2022-09-01T04:33:39.284Z,70.36
2022-09-01T04:36:44.190Z,70.27
2022-09-01T04:39:55.598Z,70.34
2022-09-01T04:42:57.961Z,70.40
2022-09-01T04:46:00.352Z,70.41
2022-09-01T04:49:07.538Z,70.36
2022-09-01T04:52:15.008Z,70.53
2022-09-01T04:55:16.880Z,70.47
2022-09-01T04:58:19.121Z,70.52
2022-09-01T05:01:24.421Z,70.37
2022-09-01T05:04:33.163Z,70.35
2022-09-01T05:07:37.336Z,70.49
2022-09-01T05:10:41.613Z,70.54
2022-09-01T05:13:56.965Z,70.66
2022-09-01T05:16:58.574Z,70.65
2022-09-01T05:20:01.641Z,70.68
2022-09-01T05:23:04.465Z,70.65
2022-09-01T05:26:16.491Z,70.79
2022-09-01T05:29:18.433Z,70.79
2022-09-01T05:32:25.329Z,70.67
2022-09-01T05:35:32.917Z,70.73
2022-09-01T05:38:34.949Z,70.62
2022-09-01T05:41:36.631Z,70.67
2022-09-01T05:44:43.556Z,70.41
2022-09-01T05:47:46.087Z,70.26
2022-09-01T05:50:49.021Z,70.32
2022-09-01T05:53:52.189Z,70.34
2022-09-01T05:57:08.205Z,70.20
2022-09-01T06:00:20.493Z,70.07
2022-09-01T06:03:24.245Z,70.19
2022-09-01T06:06:28.170Z,70.12
2022-09-01T06:09:29.978Z,70.25
2022-09-01T06:12:33.786Z,70.33
2022-09-01T06:15:40.744Z,70.13
2022-09-01T06:18:43.172Z,70.01
2022-09-01T06:21:44.948Z,70.21
2022-09-01T06:24:53.312Z,69.71
2022-09-01T06:27:58.108Z,69.65
2022-09-01T06:31:06.202Z,69.59
2022-09-01T06:34:10.072Z,69.72
2022-09-01T06:37:12.657Z,69.26
2022-09-01T06:40:17.297Z,68.78
2022-09-01T06:43:19.699Z,68.73
2022-09-01T06:46:30.893Z,68.55
2022-09-01T06:49:36.367Z,68.37
2022-09-01T06:56:14.085Z,68.19
2022-09-01T06:59:17.361Z,67.41
2022-09-01T07:02:26.623Z,66.59
2022-09-01T07:18:44.849Z,65.31
2022-09-01T07:23:03.636Z,64.81
2022-09-01T07:26:02.892Z,64.40
2022-09-01T07:29:12.382Z,64.71
2022-09-01T07:35:39.387Z,63.37
2022-09-01T07:50:11.356Z,62.00
2022-09-01T07:53:01.351Z,61.89
2022-09-01T07:56:10.628Z,61.45
2022-09-01T07:59:17.764Z,61.49
2022-09-01T08:02:24.984Z,60.67
2022-09-01T08:05:28.315Z,60.34
2022-09-01T08:08:30.463Z,60.89
2022-09-01T08:12:00.999Z,59.88
2022-09-01T08:18:17.477Z,59.25
2022-09-01T08:21:22.813Z,58.69
2022-09-01T08:24:37.421Z,57.65
2022-09-01T08:27:39.040Z,57.95
2022-09-01T08:30:42.249Z,57.09
2022-09-01T08:33:54.693Z,56.95
2022-09-01T08:36:56.282Z,56.51
2022-09-01T08:39:58.076Z,56.50
2022-09-01T08:43:25.173Z,56.03
2022-09-01T08:46:38.522Z,56.08
2022-09-01T08:49:45.078Z,55.84
2022-09-01T08:53:09.994Z,55.69
2022-09-01T08:56:13.095Z,55.22
2022-09-01T08:59:15.640Z,54.99
2022-09-01T09:03:19.855Z,55.20
2022-09-01T09:06:29.311Z,54.54
2022-09-01T09:09:53.994Z,54.18
2022-09-01T09:13:16.018Z,53.45
2022-09-01T09:16:25.700Z,53.48
2022-09-01T09:19:38.980Z,52.77
2022-09-01T09:22:42.481Z,51.92
2022-09-01T09:25:44.112Z,51.04
2022-09-01T09:28:49.394Z,51.02
2022-09-01T09:32:06.930Z,50.64
2022-09-01T09:35:32.468Z,50.44
2022-09-01T09:38:33.997Z,50.27
2022-09-01T09:41:39.829Z,50.08
2022-09-01T09:44:48.993Z,48.76
2022-09-01T09:47:51.951Z,48.23
2022-09-01T09:50:53.563Z,48.44
2022-09-01T09:54:14.366Z,48.97
2022-09-01T09:57:17.828Z,49.84
2022-09-01T10:00:23.883Z,49.46
2022-09-01T10:03:41.648Z,49.45
2022-09-01T10:06:45.441Z,50.33
2022-09-01T10:09:49.093Z,50.46
2022-09-01T10:12:55.039Z,49.48
2022-09-01T10:16:00.446Z,49.48
2022-09-01T10:19:12.644Z,48.39
2022-09-01T10:22:15.230Z,48.65
2022-09-01T10:25:20.437Z,48.08
2022-09-01T10:28:23.905Z,47.58
2022-09-01T10:31:29.558Z,47.16
2022-09-01T10:34:38.383Z,46.61
2022-09-01T10:37:41.563Z,46.73
2022-09-01T10:40:49.641Z,47.49
2022-09-01T10:43:51.672Z,46.83
2022-09-01T10:46:59.837Z,45.52
2022-09-01T10:50:22.786Z,46.06
2022-09-01T10:53:34.061Z,45.82
2022-09-01T10:56:52.038Z,45.32
2022-09-01T10:59:57.372Z,45.33
2022-09-01T11:06:42.353Z,44.77
2022-09-01T11:10:11.738Z,43.47
2022-09-01T11:13:28.782Z,43.88
2022-09-01T11:16:51.647Z,44.30
2022-09-01T11:19:55.563Z,44.60
2022-09-01T11:23:04.967Z,44.06
2022-09-01T11:26:31.930Z,42.35
2022-09-01T11:29:55.725Z,42.31
2022-09-01T11:33:15.723Z,42.53
2022-09-01T11:36:18.309Z,42.51
2022-09-01T11:39:22.577Z,41.88
2022-09-01T11:42:43.888Z,42.30
2022-09-01T11:46:06.428Z,41.24
2022-09-01T11:49:26.257Z,42.58
2022-09-01T11:52:35.266Z,41.68
2022-09-01T11:55:48.972Z,40.81
2022-09-01T11:58:51.075Z,40.14
2022-09-01T12:01:57.578Z,39.62
2022-09-01T12:05:01.701Z,39.96
2022-09-01T12:08:13.311Z,42.13
2022-09-01T12:11:21.953Z,42.31
2022-09-01T12:14:23.548Z,41.49
2022-09-01T12:17:25.660Z,40.95
2022-09-01T12:20:37.984Z,41.26
2022-09-01T12:23:42.601Z,41.61
2022-09-01T12:26:46.365Z,41.38
2022-09-01T12:29:50.415Z,42.20
2022-09-01T12:33:22.861Z,41.60
2022-09-01T12:36:35.447Z,39.91
2022-09-01T12:39:44.818Z,40.06
2022-09-01T12:42:52.074Z,39.98
2022-09-01T12:45:53.796Z,39.62
2022-09-01T12:52:25.843Z,41.06
2022-09-01T12:59:14.298Z,40.70
2022-09-01T13:02:34.609Z,41.16
2022-09-01T13:05:42.593Z,40.74
2022-09-01T13:08:44.468Z,39.84
2022-09-01T13:12:06.304Z,40.14
2022-09-01T13:15:09.053Z,40.31
2022-09-01T13:18:11.595Z,40.43
2022-09-01T13:21:14.570Z,41.26
2022-09-01T13:24:17.317Z,41.29
2022-09-01T13:27:20.637Z,41.48
2022-09-01T13:30:27.763Z,41.40
2022-09-01T13:33:30.543Z,42.11
2022-09-01T13:36:51.458Z,41.95
2022-09-01T13:39:53.518Z,41.11
2022-09-01T13:42:55.140Z,42.47
2022-09-01T13:45:56.875Z,41.52
2022-09-01T13:49:04.853Z,41.47
2022-09-01T13:52:22.338Z,41.50
2022-09-01T13:55:26.817Z,41.46
2022-09-01T13:58:40.632Z,40.76
2022-09-01T14:01:42.307Z,40.91
2022-09-01T14:04:43.979Z,41.74
2022-09-01T14:07:46.007Z,41.67
2022-09-01T14:10:50.133Z,41.70
2022-09-01T14:13:52.070Z,41.62
2022-09-01T14:16:53.713Z,41.22
2022-09-01T14:19:56.734Z,41.35
2022-09-01T14:22:58.898Z,41.36
2022-09-01T14:26:00.765Z,41.91
2022-09-01T14:29:02.491Z,41.45
2022-09-01T14:32:04.539Z,41.70
2022-09-01T14:35:20.011Z,40.74
2022-09-01T14:38:22.066Z,41.22
2022-09-01T14:41:26.445Z,41.76
2022-09-01T14:44:28.895Z,42.09
2022-09-01T14:47:31.314Z,42.46
2022-09-01T14:50:40.664Z,42.06
2022-09-01T14:53:42.383Z,43.28
2022-09-01T14:57:28.165Z,42.75
2022-09-01T15:00:09.883Z,43.08
2022-09-01T15:03:11.699Z,43.76
2022-09-01T15:06:15.897Z,42.94
2022-09-01T15:09:20.173Z,43.09
2022-09-01T15:12:22.589Z,43.56
2022-09-01T15:15:26.147Z,44.07
2022-09-01T15:18:28.263Z,44.81
2022-09-01T15:21:31.425Z,45.02
2022-09-01T15:24:33.491Z,44.92
2022-09-01T15:27:38.270Z,45.41
2022-09-01T15:30:45.072Z,45.26
2022-09-01T15:33:48.306Z,45.70
2022-09-01T15:36:49.850Z,46.55
2022-09-01T15:40:03.535Z,47.16
2022-09-01T15:43:12.153Z,47.22
2022-09-01T15:46:14.294Z,48.10
2022-09-01T15:49:17.416Z,47.42
2022-09-01T15:52:20.422Z,47.25
2022-09-01T15:55:26.494Z,48.08
2022-09-01T15:58:39.118Z,48.01
2022-09-01T16:01:52.442Z,47.82
2022-09-01T16:05:02.230Z,47.64
2022-09-01T16:08:07.745Z,47.38
2022-09-01T16:11:11.538Z,47.88
2022-09-01T16:14:14.238Z,48.26
2022-09-01T16:17:25.473Z,48.07
2022-09-01T16:20:40.613Z,48.55
2022-09-01T16:23:48.147Z,47.89
2022-09-01T16:26:50.690Z,48.02
2022-09-01T16:29:58.156Z,48.58
2022-09-01T16:33:03.579Z,49.59
2022-09-01T16:36:30.177Z,50.25
2022-09-01T16:39:50.921Z,50.29
2022-09-01T16:43:00.760Z,50.34
2022-09-01T16:46:31.571Z,51.14
2022-09-01T16:49:52.801Z,50.36
2022-09-01T16:53:14.525Z,50.60
2022-09-01T16:56:32.788Z,50.60
2022-09-01T16:59:43.038Z,50.52
2022-09-01T17:02:59.291Z,50.60
2022-09-01T17:06:13.792Z,51.03
2022-09-01T17:09:28.953Z,50.93
2022-09-01T17:12:41.572Z,51.28
2022-09-01T17:15:49.831Z,51.73
2022-09-01T17:18:54.190Z,51.81
2022-09-01T17:22:07.806Z,52.19
2022-09-01T17:25:18.882Z,52.61
2022-09-01T17:28:33.670Z,52.97
2022-09-01T17:31:38.112Z,53.59
2022-09-01T17:35:07.058Z,53.77
2022-09-01T17:38:31.525Z,53.79
2022-09-01T17:41:59.156Z,54.12
2022-09-01T17:45:14.672Z,54.55
2022-09-01T17:48:47.745Z,55.04
2022-09-01T17:52:26.607Z,55.09
2022-09-01T17:55:42.039Z,55.23
2022-09-01T17:58:55.779Z,55.91
2022-09-01T18:02:09.618Z,55.98
2022-09-01T18:05:19.248Z,56.30
2022-09-01T18:08:39.563Z,56.44
2022-09-01T18:11:50.435Z,56.48
2022-09-01T18:15:10.321Z,56.44
2022-09-01T18:18:37.392Z,56.18
2022-09-01T18:21:49.435Z,56.67
2022-09-01T18:24:57.017Z,56.71
2022-09-01T18:27:58.682Z,56.33
2022-09-01T18:31:28.881Z,56.82
2022-09-01T18:34:48.902Z,57.03
2022-09-01T18:38:00.698Z,57.20
2022-09-01T18:41:21.737Z,57.40
2022-09-01T18:45:09.542Z,57.55
2022-09-01T18:48:30.076Z,57.36
2022-09-01T18:51:55.940Z,57.52
2022-09-01T18:55:37.529Z,57.42
2022-09-01T18:59:10.030Z,57.42
2022-09-01T19:02:30.036Z,57.43
2022-09-01T19:05:45.553Z,57.75
2022-09-01T19:08:51.688Z,57.88
2022-09-01T19:12:05.226Z,58.02
2022-09-01T19:15:15.737Z,57.86
2022-09-01T19:18:25.870Z,58.15
2022-09-01T19:21:31.701Z,57.92
2022-09-01T19:24:41.149Z,57.65
2022-09-01T19:27:55.741Z,57.67
2022-09-01T19:31:09.628Z,58.78
2022-09-01T19:34:14.847Z,58.12
2022-09-01T19:37:20.810Z,58.17
2022-09-01T19:40:28.815Z,57.82
2022-09-01T19:43:35.791Z,57.83
2022-09-01T19:46:46.373Z,57.57
2022-09-01T19:50:01.336Z,57.56
2022-09-01T19:53:06.825Z,57.42
2022-09-01T19:56:24.059Z,57.85
2022-09-01T19:59:46.879Z,57.64
2022-09-01T20:03:17.386Z,57.49
2022-09-01T20:06:41.190Z,58.06
2022-09-01T20:09:53.226Z,58.31
2022-09-01T20:12:54.835Z,58.31
2022-09-01T20:16:08.632Z,58.32
2022-09-01T20:19:16.089Z,58.60
2022-09-01T20:22:24.747Z,58.68
2022-09-01T20:25:42.912Z,58.59
2022-09-01T20:29:11.450Z,58.67
2022-09-01T20:32:27.066Z,58.69
2022-09-01T20:35:40.079Z,58.68
2022-09-01T20:39:11.502Z,58.46
2022-09-01T20:42:38.630Z,58.59
2022-09-01T20:45:45.109Z,58.68
2022-09-01T20:48:47.706Z,58.54
2022-09-01T20:52:04.730Z,58.84
2022-09-01T20:55:16.340Z,59.03
2022-09-01T20:59:14.840Z,59.18
2022-09-01T21:02:26.137Z,59.02
2022-09-01T21:05:51.992Z,59.15
2022-09-01T21:09:12.864Z,59.41
2022-09-01T21:12:39.543Z,59.64
2022-09-01T21:15:59.419Z,59.58
2022-09-01T21:19:04.305Z,59.55
2022-09-01T21:22:10.579Z,59.76
2022-09-01T21:25:12.133Z,59.94
2022-09-01T21:28:19.636Z,60.03
2022-09-01T21:31:25.555Z,60.22
2022-09-01T21:34:27.393Z,60.21
2022-09-01T21:37:29.086Z,60.37
2022-09-01T21:40:30.722Z,60.28
2022-09-01T21:43:35.457Z,60.51
2022-09-01T21:46:37.384Z,60.55
2022-09-01T21:49:41.878Z,60.48
2022-09-01T21:52:43.720Z,60.80
2022-09-01T21:55:47.740Z,60.98
2022-09-01T21:58:51.733Z,60.91
2022-09-01T22:01:53.751Z,61.01
2022-09-01T22:04:55.649Z,61.08
2022-09-01T22:07:57.834Z,61.01
2022-09-01T22:10:59.328Z,61.18
2022-09-01T22:14:01.030Z,60.96
2022-09-01T22:17:04.416Z,61.21
2022-09-01T22:20:08.917Z,61.32
2022-09-01T22:23:11.978Z,61.54
2022-09-01T22:26:24.292Z,61.64
2022-09-01T22:29:25.802Z,61.66
2022-09-01T22:32:32.850Z,61.42
2022-09-01T22:35:40.217Z,61.67
2022-09-01T22:38:41.767Z,61.98
2022-09-01T22:41:43.313Z,62.12
2022-09-01T22:44:44.974Z,62.28
2022-09-01T22:47:46.542Z,62.34
2022-09-01T22:50:49.400Z,62.54
2022-09-01T22:53:51.002Z,62.62
2022-09-01T22:56:53.368Z,62.81
2022-09-01T22:59:57.845Z,62.80
2022-09-01T23:03:00.659Z,62.83
2022-09-01T23:06:09.741Z,62.76
2022-09-01T23:09:11.937Z,62.83
2022-09-01T23:12:13.662Z,62.78
2022-09-01T23:15:16.861Z,62.56
2022-09-01T23:18:18.677Z,62.79
2022-09-01T23:21:25.889Z,62.55
2022-09-01T23:24:27.626Z,62.74
2022-09-01T23:27:29.244Z,62.68
2022-09-01T23:30:30.848Z,62.70
2022-09-01T23:33:32.441Z,62.56
2022-09-01T23:36:35.341Z,62.47
2022-09-01T23:39:36.876Z,62.52
2022-09-01T23:42:38.434Z,62.71
2022-09-01T23:45:43.087Z,62.59
2022-09-01T23:48:44.872Z,62.39
2022-09-01T23:51:48.403Z,62.42
2022-09-01T23:54:49.976Z,62.27
2022-09-01T23:57:51.604Z,62.21
